Bobo, Mississippi
Current Conditions -  °F | °C
As of 5:35 PM on Saturday 25 Oct 2014 (Local Time) from KCKM Reporting Station
Broken Clouds Broken Clouds  
Wind Chill: 81°   Ceiling: 4000
Heat Index: 82°   Visibility: 10mi
Dew Point: 64°   Wind: 7mph
Humidity: 58%   Direction: 230°SW
Pressure: 30.04"   Gusts: NA
Location:  34.1809°N, 90.6118°W
Report Text: KCKM 252235Z AUTO 23006KT 10SM BKN040 27/18 A3004 RMK AO1
Loading
Personal Weather Stations






























Interactive Weather Map
Tropical Storm Tracking
New forecast layout! Learn more

10-Day Weather Forecast

Advertisements
Track Severe Weather on mobile